Weather observations for the past three days for
Yap Island - Yap Int. Airport
| Date | Time (+10) | Wind (mph) | Vis. (mi.) | Weather | Sky Cond. | Temperature (ºF) | Relative Humidity | Wind Chill (°F) | Heat Index (°F) | Pressure | Precipitation (in) | ||||||
|---|---|---|---|---|---|---|---|---|---|---|---|---|---|---|---|---|---|
| Air | Dwpt | 6 hour | altimeter (in) | sea level (mb) | 1 hr | 3 hr | 6 hr | ||||||||||
| Max. | Min. | ||||||||||||||||
| 04 | 10:55 | E 15 G 25 | 12.00 | Mostly Cloudy | FEW016 SCT130 BKN300 | 87.1 | 80.1 | 80% | 103 | 29.81 | 1009.5 | ||||||
| 04 | 09:53 | E 12 G 23 | 12.00 | Mostly Cloudy | FEW016 SCT130 BKN300 | 86.4 | 79.9 | 86.4 | 79.9 | 81% | 102 | 29.81 | 1009.6 | ||||
| 04 | 08:51 | E 9 | 12.00 | Mostly Cloudy | FEW016 SCT130 BKN300 | 83.8 | 80.1 | 88% | 97 | 29.81 | 1009.5 | ||||||
| 04 | 06:56 | Vrbl 5 | 12.00 | Mostly Cloudy | FEW016 BKN130 BKN300 | 80.8 | 79.3 | 95% | 89 | 29.77 | 1008.3 | ||||||
| 04 | 04:59 | Vrbl 7 | 12.00 | Overcast | SCT016CB BKN130 OVC300 | 79.9 | 79 | 97% | 86 | 29.76 | 1007.8 | ||||||
| 04 | 03:57 | Vrbl 7 | 12.00 | Overcast | SCT016CB OVC120 | 80.2 | 79.2 | 80.4 | 78.8 | 97% | 87 | 29.76 | 1007.9 | 0.01 | |||
| 04 | 02:55 | E 12 | 12.00 | Overcast | SCT016CB OVC120 | 80.2 | 79.3 | 97% | 88 | 29.76 | 1007.9 | ||||||
| 04 | 01:51 | Vrbl 6 | 12.00 | Overcast | SCT016CB OVC120 | 80.4 | 79.3 | 97% | 88 | 29.78 | 1008.4 | ||||||
| 04 | 00:54 | Vrbl 7 | 12.00 | Overcast | SCT016CB OVC120 | 79.7 | 78.4 | 96% | 86 | 29.79 | 1008.8 | 0.01 | |||||
| 03 | 23:50 | Vrbl 7 | 12.00 | Overcast | SCT016CB OVC120 | 80.2 | 79.5 | 98% | 88 | 29.8 | 1009.3 | ||||||
| 03 | 22:51 | NE 9 | 12.00 | Overcast | SCT016CB OVC120 | 79.3 | 78.8 | 98% | 85 | 29.8 | 1009.1 | ||||||
| 03 | 21:51 | E 12 | 12.00 | Overcast | SCT016CB OVC120 | 79.2 | 78.6 | 79.9 | 78.1 | 98% | 84 | 29.8 | 1009.3 | 0.58 | |||
| 03 | 20:50 | E 9 G 17 | 10.00 | Light Showers Rain | SCT016CB OVC120 | 78.1 | 77.5 | 98% | 81 | 29.8 | 1009.1 | ||||||
| 03 | 19:52 | E 9 G 21 | 10.00 | Light Showers Rain | SCT016CB OVC120 | 78.4 | 78.1 | 99% | 82 | 29.79 | 1008.8 | ||||||
| 03 | 18:51 | NE 8 | 12.00 | Overcast | SCT016CB OVC120 | 79.9 | 79 | 97% | 86 | 29.77 | 1008.3 | 0.16 | |||||
| 03 | 17:50 | NE 9 | 11.00 | Light Showers Rain | SCT016CB OVC120 | 79.7 | 79 | 98% | 86 | 29.75 | 1007.6 | ||||||
| 03 | 16:52 | Vrbl 7 | 10.00 | Light Showers Rain | SCT016CB OVC120 | 79.9 | 78.8 | 97% | 86 | 29.74 | 1007.3 | ||||||
| 03 | 15:51 | Vrbl 7 | 6.00 | Showers Rain | SCT016CB OVC120 | 78.6 | 77.4 | 82.2 | 78.6 | 96% | 82 | 29.76 | 1007.8 | 0.94 | |||
| 03 | 14:50 | NE 14 G 18 | 10.00 | Light Showers Rain | SCT016CB SCT035 OVC120 | 79.5 | 78.1 | 95% | 85 | 29.77 | 1008.3 | ||||||
| 03 | 13:50 | NE 8 | 11.00 | Light Rain | SCT016CB OVC120 | 79 | 77.7 | 96% | 83 | 29.79 | 1008.8 | ||||||
| 03 | 12:54 | E 12 G 18 | 12.00 | Overcast | SCT016CB OVC130 | 79.9 | 78.8 | 97% | 86 | 29.8 | 1009.1 | 0.5 | |||||
| 03 | 11:53 | Vrbl 7 | 12.00 | Overcast | SCT016CB BKN130 OVC300 | 82.2 | 80.1 | 93% | 93 | 29.8 | 1009.3 | ||||||
| 03 | 10:52 | Vrbl 6 | 12.00 | Thunderstorm | SCT016CB OVC120 | 79.2 | 77.9 | 96% | 84 | 29.81 | 1009.5 | ||||||
| 03 | 09:53 | N 9 | 10.00 | Light Showers Rain | SCT016CB BKN130 OVC300 | 80.1 | 79.2 | 80.1 | 78.1 | 97% | 87 | 29.82 | 1009.8 | 0.13 | |||
| 03 | 08:50 | E 9 | 12.00 | Overcast | SCT016CB BKN130 OVC300 | 79.3 | 78.6 | 98% | 85 | 29.81 | 1009.5 | ||||||
| 03 | 07:54 | NE 9 | 12.00 | Overcast | SCT016CB BKN130 OVC300 | 79.3 | 77.9 | 95% | 84 | 29.79 | 1008.8 | ||||||
| 03 | 06:58 | Vrbl 5 | 12.00 | Overcast | SCT016CB BKN130 OVC300 | 78.1 | 77.4 | 98% | 81 | 29.77 | 1008.3 | 0.09 | |||||
| 03 | 05:53 | Vrbl 7 | 12.00 | Mostly Cloudy | FEW016 BKN300 | 78.3 | 77 | 96% | 81 | 29.75 | 1007.6 | ||||||
| 03 | 04:52 | Vrbl 3 | 12.00 | Mostly Cloudy | FEW016 BKN300 | 78.3 | 77.2 | 97% | 81 | 29.76 | 1007.9 | ||||||
| 03 | 03:53 | Vrbl 6 | 12.00 | Mostly Cloudy | FEW016 BKN300 | 79 | 78.6 | 82.4 | 78.4 | 99% | 84 | 29.76 | 1007.9 | 0.03 | |||
| 03 | 02:54 | Vrbl 2 | 12.00 | Overcast | SCT016TCU OVC300 | 78.4 | 77.7 | 98% | 82 | 29.78 | 1008.6 | ||||||
| 03 | 01:51 | Vrbl 3 | 12.00 | Overcast | SCT016TCU OVC300 | 79.3 | 78.8 | 98% | 85 | 29.79 | 1009.0 | ||||||
| 03 | 00:55 | Vrbl 3 | 12.00 | Partly Cloudy | FEW016 SCT300 | 79.9 | 78.3 | 95% | 86 | 29.81 | 1009.5 | ||||||
| 02 | 23:50 | Vrbl 5 | 12.00 | Partly Cloudy | FEW016 SCT300 | 79.5 | 79 | 98% | 85 | 29.82 | 1010.0 | ||||||
| 02 | 22:50 | Vrbl 5 | 12.00 | Partly Cloudy | FEW017 SCT300 | 79.9 | 79.2 | 98% | 86 | 29.83 | 1010.3 | ||||||
| 02 | 21:50 | Vrbl 6 | 12.00 | Partly Cloudy | FEW017 SCT300 | 81.5 | 78.4 | 87.6 | 81.5 | 90% | 90 | 29.82 | 1009.8 | ||||
| 02 | 20:50 | Vrbl 6 | 12.00 | Partly Cloudy | FEW017 SCT300 | 81.9 | 78.4 | 89% | 91 | 29.8 | 1009.3 | ||||||
| 02 | 19:52 | Vrbl 6 | 12.00 | A Few Clouds | FEW017 FEW300 | 81.7 | 78.3 | 89% | 90 | 29.78 | 1008.6 | ||||||
| 02 | 18:52 | Vrbl 6 | 12.00 | Partly Cloudy | FEW017 SCT300 | 82.9 | 78.3 | 86% | 93 | 29.76 | 1007.9 | ||||||
| 02 | 17:50 | E 12 | 12.00 | Partly Cloudy | FEW017 SCT300 | 85.5 | 77.4 | 77% | 97 | 29.75 | 1007.6 | ||||||
| 02 | 16:51 | NE 13 | 12.00 | Partly Cloudy | FEW018 SCT300 | 86.4 | 77.5 | 75% | 98 | 29.74 | 1007.3 | ||||||
| 02 | 15:52 | E 12 G 20 | 12.00 | Partly Cloudy | FEW019 SCT300 | 87.6 | 77.4 | 88 | 85.6 | 72% | 100 | 29.74 | 1007.3 | ||||
| 02 | 14:50 | NE 13 G 23 | 12.00 | Partly Cloudy | FEW019 SCT300 | 87.8 | 76.8 | 70% | 100 | 29.76 | 1007.8 | ||||||
| 02 | 13:51 | NE 14 | 12.00 | Partly Cloudy | FEW019 SCT300 | 88 | 76.3 | 68% | 99 | 29.78 | 1008.4 | ||||||
| 02 | 12:55 | E 12 | 12.00 | Partly Cloudy | FEW018 SCT300 | 87.4 | 77.4 | 72% | 100 | 29.8 | 1009.3 | ||||||
| 02 | 11:51 | E 10 | 12.00 | Partly Cloudy | FEW018 SCT300 | 87.8 | 77.9 | 73% | 101 | 29.82 | 1009.8 | ||||||
| 02 | 09:55 | E 15 | 12.00 | Partly Cloudy | FEW017 SCT300 | 85.6 | 77.7 | 85.6 | 79.2 | 77% | 97 | 29.82 | 1010.0 | ||||
| 02 | 08:52 | NE 13 | 12.00 | Mostly Cloudy | FEW016 BKN300 | 82.8 | 77.9 | 85% | 92 | 29.82 | 1010.0 | ||||||
| 02 | 06:54 | Vrbl 6 | 12.00 | Mostly Cloudy | FEW016 BKN300 | 79.2 | 77.5 | 95% | 84 | 29.81 | 1009.5 | ||||||
| 02 | 05:58 | Vrbl 7 | 12.00 | Mostly Cloudy | FEW016 BKN300 | 80.1 | 77.7 | 93% | 86 | 29.82 | 1009.8 | ||||||
| 02 | 03:52 | Vrbl 6 | 12.00 | Mostly Cloudy | FEW016 BKN300 | 79.9 | 77.7 | 81.3 | 78.1 | 93% | 86 | 29.82 | 1009.8 | 0.07 | |||
| 02 | 01:50 | Vrbl 5 | 12.00 | Mostly Cloudy | FEW016 BKN300 | 78.8 | 78.6 | 99% | 83 | 29.82 | 1010.0 | ||||||
| 02 | 00:55 | Vrbl 5 | 12.00 | Mostly Cloudy | SCT016CB SCT130 BKN300 | 78.1 | 77.9 | 99% | 81 | 29.82 | 1010.0 | 0.07 | |||||
| 01 | 23:54 | Vrbl 7 | 12.00 | Partly Cloudy | FEW016TCU SCT300 | 80.8 | 78.8 | 94% | 89 | 29.84 | 1010.5 | ||||||
| 01 | 22:52 | E 8 | 12.00 | Partly Cloudy | FEW016 SCT300 | 81.3 | 79 | 93% | 90 | 29.84 | 1010.7 | ||||||
| 01 | 21:50 | Vrbl 6 | 12.00 | Partly Cloudy | FEW016 SCT300 | 81.1 | 79.2 | 84.4 | 81.1 | 94% | 90 | 29.83 | 1010.1 | ||||
| 01 | 20:55 | Vrbl 7 | 12.00 | Partly Cloudy | FEW016 SCT300 | 81.3 | 79 | 93% | 90 | 29.81 | 1009.6 | ||||||
| 01 | 19:55 | E 8 | 12.00 | Mostly Cloudy | FEW016 BKN300 | 81.7 | 79.3 | 93% | 91 | 29.8 | 1009.3 | ||||||
| 01 | 18:55 | E 10 | 12.00 | Mostly Cloudy | FEW016 BKN300 | 82.2 | 79.2 | 91% | 92 | 29.78 | 1008.6 | ||||||
| 01 | 16:51 | E 10 | 12.00 | Mostly Cloudy | FEW016TCU BKN300 | 84.4 | 80.2 | 87% | 98 | 29.77 | 1008.3 | ||||||
| 01 | 15:51 | E 10 | 12.00 | Showers in Vicinity | SCT016TCU BKN300 | 82.8 | 81.1 | 88 | 82.8 | 95% | 96 | 29.77 | 1008.1 | 0.11 | |||
| 01 | 14:50 | SE 8 | 12.00 | Mostly Cloudy | SCT016TCU BKN300 | 87.3 | 80.4 | 80% | 104 | 29.78 | 1008.4 | ||||||
| 01 | 13:53 | E 8 | 12.00 | Mostly Cloudy | SCT016TCU BKN300 | 84 | 81.7 | 93% | 99 | 29.8 | 1009.3 | ||||||
| 01 | 12:51 | E 10 | 12.00 | Mostly Cloudy | SCT016TCU BKN300 | 88 | 80.6 | 79% | 105 | 29.82 | 1010.0 | ||||||
| 01 | 11:53 | SE 12 | 12.00 | Showers in Vicinity | SCT016TCU BKN300 | 86.7 | 79.9 | 80% | 102 | 29.84 | 1010.7 | ||||||
| Date | Time (+10) | Wind (mph) | Vis. (mi.) | Weather | Sky Cond. | Air | Dwpt | Max. | Min. | Relative Humidity | Wind Chill (°F) | Heat Index (°F) | altimeter (in) | sea level (mb) | 1 hr | 3 hr | 6 hr |
| 6 hour | |||||||||||||||||
| Temperature (ºF) | Pressure | Precipitation (in) | |||||||||||||||